sensor_id;sensor_type;location;lat;lon;timestamp;P1;P2;P0
27143;PMS1003;14672;50.250;8.312;2023-08-17T00:00:25;6.00;6.00;2.00
27143;PMS1003;14672;50.250;8.312;2023-08-17T00:02:51;6.00;6.00;2.00
27143;PMS1003;14672;50.250;8.312;2023-08-17T00:05:17;7.00;7.00;2.00
27143;PMS1003;14672;50.250;8.312;2023-08-17T00:07:43;6.00;6.00;1.67
27143;PMS1003;14672;50.250;8.312;2023-08-17T00:10:09;7.33;6.67;2.00
27143;PMS1003;14672;50.250;8.312;2023-08-17T00:12:34;9.00;9.00;3.00
27143;PMS1003;14672;50.250;8.312;2023-08-17T00:15:00;6.33;6.00;2.00
27143;PMS1003;14672;50.250;8.312;2023-08-17T00:17:26;6.00;6.00;2.00
27143;PMS1003;14672;50.250;8.312;2023-08-17T00:19:52;9.00;9.00;2.00
27143;PMS1003;14672;50.250;8.312;2023-08-17T00:22:17;6.67;6.67;2.67
27143;PMS1003;14672;50.250;8.312;2023-08-17T00:24:43;9.00;9.00;5.00
27143;PMS1003;14672;50.250;8.312;2023-08-17T00:27:10;9.25;7.75;2.00
27143;PMS1003;14672;50.250;8.312;2023-08-17T00:29:36;6.50;6.50;2.00
27143;PMS1003;14672;50.250;8.312;2023-08-17T00:32:05;6.50;6.50;2.50
27143;PMS1003;14672;50.250;8.312;2023-08-17T00:34:31;6.50;6.50;2.00
27143;PMS1003;14672;50.250;8.312;2023-08-17T00:36:56;8.33;8.33;2.00
27143;PMS1003;14672;50.250;8.312;2023-08-17T00:39:22;6.67;6.67;2.00
27143;PMS1003;14672;50.250;8.312;2023-08-17T00:41:48;7.00;7.00;2.00
27143;PMS1003;14672;50.250;8.312;2023-08-17T00:44:13;9.33;9.00;2.33
27143;PMS1003;14672;50.250;8.312;2023-08-17T00:46:39;6.00;6.00;2.00
27143;PMS1003;14672;50.250;8.312;2023-08-17T00:49:06;6.00;6.00;2.00
27143;PMS1003;14672;50.250;8.312;2023-08-17T00:51:31;7.00;7.00;2.00
27143;PMS1003;14672;50.250;8.312;2023-08-17T00:53:58;5.25;5.25;1.25
27143;PMS1003;14672;50.250;8.312;2023-08-17T00:56:26;6.00;6.00;2.00
27143;PMS1003;14672;50.250;8.312;2023-08-17T00:58:53;6.50;6.50;3.00
27143;PMS1003;14672;50.250;8.312;2023-08-17T01:01:19;6.50;6.25;2.00
27143;PMS1003;14672;50.250;8.312;2023-08-17T01:03:45;7.00;7.00;2.75
27143;PMS1003;14672;50.250;8.312;2023-08-17T01:06:11;6.00;6.00;2.67
27143;PMS1003;14672;50.250;8.312;2023-08-17T01:08:37;6.00;6.00;2.00
27143;PMS1003;14672;50.250;8.312;2023-08-17T01:16:39;9.00;9.00;3.00
27143;PMS1003;14672;50.250;8.312;2023-08-17T01:19:12;8.25;7.00;3.00
27143;PMS1003;14672;50.250;8.312;2023-08-17T01:21:44;8.50;8.00;2.50
27143;PMS1003;14672;50.250;8.312;2023-08-17T01:24:15;17.25;17.25;7.00
27143;PMS1003;14672;50.250;8.312;2023-08-17T01:26:41;13.33;13.33;7.00
27143;PMS1003;14672;50.250;8.312;2023-08-17T01:29:06;11.33;11.33;5.00
27143;PMS1003;14672;50.250;8.312;2023-08-17T01:34:26;9.75;9.75;2.25
27143;PMS1003;14672;50.250;8.312;2023-08-17T01:36:56;9.75;9.00;3.00
27143;PMS1003;14672;50.250;8.312;2023-08-17T01:39:27;9.25;9.25;3.50
27143;PMS1003;14672;50.250;8.312;2023-08-17T01:42:02;11.25;10.00;5.00
27143;PMS1003;14672;50.250;8.312;2023-08-17T01:44:29;9.50;9.50;5.00
27143;PMS1003;14672;50.250;8.312;2023-08-17T01:46:55;9.00;9.00;3.00
27143;PMS1003;14672;50.250;8.312;2023-08-17T01:49:22;6.75;6.75;2.75
27143;PMS1003;14672;50.250;8.312;2023-08-17T01:51:47;10.33;10.33;4.67
27143;PMS1003;14672;50.250;8.312;2023-08-17T01:54:13;9.00;9.00;4.00
27143;PMS1003;14672;50.250;8.312;2023-08-17T01:56:39;10.67;10.67;5.00
27143;PMS1003;14672;50.250;8.312;2023-08-17T01:59:04;10.00;9.67;3.00
27143;PMS1003;14672;50.250;8.312;2023-08-17T02:01:30;10.00;10.00;4.67
27143;PMS1003;14672;50.250;8.312;2023-08-17T02:03:56;13.00;10.33;3.67
27143;PMS1003;14672;50.250;8.312;2023-08-17T02:06:21;11.33;10.00;5.00
27143;PMS1003;14672;50.250;8.312;2023-08-17T02:08:47;13.00;11.00;5.00
27143;PMS1003;14672;50.250;8.312;2023-08-17T02:11:13;11.00;10.67;5.00
27143;PMS1003;14672;50.250;8.312;2023-08-17T02:13:39;12.33;11.33;4.67
27143;PMS1003;14672;50.250;8.312;2023-08-17T02:16:04;9.00;7.67;3.00
27143;PMS1003;14672;50.250;8.312;2023-08-17T02:18:30;11.00;11.00;5.00
27143;PMS1003;14672;50.250;8.312;2023-08-17T02:21:00;10.00;10.00;5.25
27143;PMS1003;14672;50.250;8.312;2023-08-17T02:23:26;13.00;11.00;5.00
27143;PMS1003;14672;50.250;8.312;2023-08-17T02:25:52;11.00;11.00;5.00
27143;PMS1003;14672;50.250;8.312;2023-08-17T02:28:17;10.67;10.67;5.00
27143;PMS1003;14672;50.250;8.312;2023-08-17T02:30:43;10.33;10.33;5.67
27143;PMS1003;14672;50.250;8.312;2023-08-17T02:33:09;15.67;15.67;5.33
27143;PMS1003;14672;50.250;8.312;2023-08-17T02:35:37;10.75;10.00;5.00
27143;PMS1003;14672;50.250;8.312;2023-08-17T02:38:03;9.00;9.00;3.00
27143;PMS1003;14672;50.250;8.312;2023-08-17T02:40:28;10.67;10.00;5.00
27143;PMS1003;14672;50.250;8.312;2023-08-17T02:42:54;10.33;10.33;5.00
27143;PMS1003;14672;50.250;8.312;2023-08-17T02:45:20;8.67;8.00;3.00
27143;PMS1003;14672;50.250;8.312;2023-08-17T02:47:45;9.00;7.67;2.00
27143;PMS1003;14672;50.250;8.312;2023-08-17T02:50:11;6.33;6.33;2.00
27143;PMS1003;14672;50.250;8.312;2023-08-17T02:52:37;9.00;9.00;3.00
27143;PMS1003;14672;50.250;8.312;2023-08-17T02:55:03;9.00;7.33;3.00
27143;PMS1003;14672;50.250;8.312;2023-08-17T02:57:29;8.75;8.75;3.25
27143;PMS1003;14672;50.250;8.312;2023-08-17T02:59:55;9.33;9.00;3.00
27143;PMS1003;14672;50.250;8.312;2023-08-17T03:02:20;10.00;10.00;5.00
27143;PMS1003;14672;50.250;8.312;2023-08-17T03:04:46;10.33;10.00;3.00
27143;PMS1003;14672;50.250;8.312;2023-08-17T03:07:12;9.00;9.00;3.00
27143;PMS1003;14672;50.250;8.312;2023-08-17T03:09:37;8.00;8.00;2.00
27143;PMS1003;14672;50.250;8.312;2023-08-17T03:12:03;7.00;7.00;3.00
27143;PMS1003;14672;50.250;8.312;2023-08-17T03:14:29;9.75;9.00;4.25
27143;PMS1003;14672;50.250;8.312;2023-08-17T03:16:55;10.00;10.00;5.00
27143;PMS1003;14672;50.250;8.312;2023-08-17T03:19:21;11.00;10.33;4.67
27143;PMS1003;14672;50.250;8.312;2023-08-17T03:21:46;9.67;9.00;5.00
27143;PMS1003;14672;50.250;8.312;2023-08-17T03:24:12;10.00;10.00;3.00
27143;PMS1003;14672;50.250;8.312;2023-08-17T03:26:38;12.00;12.00;4.33
27143;PMS1003;14672;50.250;8.312;2023-08-17T03:29:03;10.00;10.00;4.33
27143;PMS1003;14672;50.250;8.312;2023-08-17T03:31:29;9.33;9.00;4.00
27143;PMS1003;14672;50.250;8.312;2023-08-17T03:33:55;8.00;8.00;3.00
27143;PMS1003;14672;50.250;8.312;2023-08-17T03:36:21;8.00;7.33;2.33
27143;PMS1003;14672;50.250;8.312;2023-08-17T03:38:47;8.00;8.00;2.00
27143;PMS1003;14672;50.250;8.312;2023-08-17T03:41:12;8.00;7.00;2.33
27143;PMS1003;14672;50.250;8.312;2023-08-17T03:43:38;6.00;6.00;3.00
27143;PMS1003;14672;50.250;8.312;2023-08-17T03:46:04;9.00;7.00;2.00
27143;PMS1003;14672;50.250;8.312;2023-08-17T03:48:30;10.00;10.00;4.00
27143;PMS1003;14672;50.250;8.312;2023-08-17T03:50:56;13.33;11.00;5.67
27143;PMS1003;14672;50.250;8.312;2023-08-17T03:53:22;11.33;11.33;3.00
27143;PMS1003;14672;50.250;8.312;2023-08-17T03:55:48;11.00;11.00;5.00
27143;PMS1003;14672;50.250;8.312;2023-08-17T03:58:15;8.50;8.50;3.00
27143;PMS1003;14672;50.250;8.312;2023-08-17T04:00:48;12.25;10.50;5.25
27143;PMS1003;14672;50.250;8.312;2023-08-17T04:03:18;8.50;8.25;3.25
27143;PMS1003;14672;50.250;8.312;2023-08-17T04:05:44;8.75;8.75;4.25
27143;PMS1003;14672;50.250;8.312;2023-08-17T04:08:10;11.67;11.00;4.67
27143;PMS1003;14672;50.250;8.312;2023-08-17T04:10:36;13.33;13.00;5.67
27143;PMS1003;14672;50.250;8.312;2023-08-17T04:13:02;11.33;11.33;5.00
27143;PMS1003;14672;50.250;8.312;2023-08-17T04:15:28;11.00;11.00;5.00
27143;PMS1003;14672;50.250;8.312;2023-08-17T04:17:53;13.00;13.00;6.00
27143;PMS1003;14672;50.250;8.312;2023-08-17T04:20:19;10.67;10.67;5.33
27143;PMS1003;14672;50.250;8.312;2023-08-17T04:22:45;12.25;12.25;5.25
27143;PMS1003;14672;50.250;8.312;2023-08-17T04:25:12;14.00;13.00;7.00
27143;PMS1003;14672;50.250;8.312;2023-08-17T04:27:38;11.50;10.25;3.75
27143;PMS1003;14672;50.250;8.312;2023-08-17T04:30:04;12.00;11.00;4.67
27143;PMS1003;14672;50.250;8.312;2023-08-17T04:32:31;10.25;10.25;5.25
27143;PMS1003;14672;50.250;8.312;2023-08-17T04:34:57;14.67;14.33;7.00
27143;PMS1003;14672;50.250;8.312;2023-08-17T04:37:22;10.00;10.00;5.00
27143;PMS1003;14672;50.250;8.312;2023-08-17T04:39:49;9.67;9.67;3.33
27143;PMS1003;14672;50.250;8.312;2023-08-17T04:42:15;10.75;10.75;5.00
27143;PMS1003;14672;50.250;8.312;2023-08-17T04:44:40;10.00;10.00;5.00
27143;PMS1003;14672;50.250;8.312;2023-08-17T04:47:07;10.00;10.00;3.33
27143;PMS1003;14672;50.250;8.312;2023-08-17T04:49:34;13.25;12.75;5.75
27143;PMS1003;14672;50.250;8.312;2023-08-17T04:52:00;12.33;11.67;6.00
27143;PMS1003;14672;50.250;8.312;2023-08-17T04:54:25;11.67;11.67;5.00
27143;PMS1003;14672;50.250;8.312;2023-08-17T04:56:51;11.00;11.00;6.00
27143;PMS1003;14672;50.250;8.312;2023-08-17T04:59:17;34.67;31.00;17.33
27143;PMS1003;14672;50.250;8.312;2023-08-17T05:01:43;18.67;18.67;9.67
27143;PMS1003;14672;50.250;8.312;2023-08-17T05:04:08;11.33;11.33;5.67
27143;PMS1003;14672;50.250;8.312;2023-08-17T05:06:34;9.67;9.33;3.00
27143;PMS1003;14672;50.250;8.312;2023-08-17T05:09:01;11.75;11.25;5.00
27143;PMS1003;14672;50.250;8.312;2023-08-17T05:11:26;10.67;10.67;6.00
27143;PMS1003;14672;50.250;8.312;2023-08-17T05:13:52;10.67;10.67;5.00
27143;PMS1003;14672;50.250;8.312;2023-08-17T05:16:18;12.67;12.67;6.00
27143;PMS1003;14672;50.250;8.312;2023-08-17T05:18:43;13.00;13.00;5.00
27143;PMS1003;14672;50.250;8.312;2023-08-17T05:21:09;11.33;11.33;5.00
27143;PMS1003;14672;50.250;8.312;2023-08-17T05:23:35;12.33;11.33;6.33
27143;PMS1003;14672;50.250;8.312;2023-08-17T05:26:01;14.00;14.00;6.00
27143;PMS1003;14672;50.250;8.312;2023-08-17T05:28:29;11.00;11.00;5.25
27143;PMS1003;14672;50.250;8.312;2023-08-17T05:30:55;11.00;10.00;4.33
27143;PMS1003;14672;50.250;8.312;2023-08-17T05:33:21;11.25;11.25;5.00
27143;PMS1003;14672;50.250;8.312;2023-08-17T05:35:52;10.33;10.33;5.33
27143;PMS1003;14672;50.250;8.312;2023-08-17T05:38:19;11.00;11.00;5.50
27143;PMS1003;14672;50.250;8.312;2023-08-17T05:40:45;13.33;12.33;5.00
27143;PMS1003;14672;50.250;8.312;2023-08-17T05:43:11;10.33;10.00;4.67
27143;PMS1003;14672;50.250;8.312;2023-08-17T05:45:37;9.33;9.33;3.00
27143;PMS1003;14672;50.250;8.312;2023-08-17T05:48:03;9.33;9.00;5.00
27143;PMS1003;14672;50.250;8.312;2023-08-17T05:50:29;11.00;10.75;5.00
27143;PMS1003;14672;50.250;8.312;2023-08-17T05:52:58;13.25;12.00;5.75
27143;PMS1003;14672;50.250;8.312;2023-08-17T05:55:24;11.00;11.00;5.67
27143;PMS1003;14672;50.250;8.312;2023-08-17T05:57:51;12.33;11.00;5.00
27143;PMS1003;14672;50.250;8.312;2023-08-17T06:00:17;12.50;11.75;4.50
27143;PMS1003;14672;50.250;8.312;2023-08-17T06:02:43;10.33;10.00;5.00
27143;PMS1003;14672;50.250;8.312;2023-08-17T06:05:08;13.00;11.00;5.00
27143;PMS1003;14672;50.250;8.312;2023-08-17T06:07:35;10.75;10.75;5.50
27143;PMS1003;14672;50.250;8.312;2023-08-17T06:10:03;11.00;10.00;5.00
27143;PMS1003;14672;50.250;8.312;2023-08-17T06:12:34;10.25;10.25;5.00
27143;PMS1003;14672;50.250;8.312;2023-08-17T06:15:01;11.00;11.00;5.00
27143;PMS1003;14672;50.250;8.312;2023-08-17T06:17:27;11.50;11.00;5.00
27143;PMS1003;14672;50.250;8.312;2023-08-17T06:19:54;10.25;10.00;5.00
27143;PMS1003;14672;50.250;8.312;2023-08-17T06:22:19;10.00;10.00;5.00
27143;PMS1003;14672;50.250;8.312;2023-08-17T06:24:45;11.00;10.00;4.33
27143;PMS1003;14672;50.250;8.312;2023-08-17T06:27:14;10.67;10.00;5.00
27143;PMS1003;14672;50.250;8.312;2023-08-17T06:29:40;10.25;10.25;5.00
27143;PMS1003;14672;50.250;8.312;2023-08-17T06:32:07;9.67;9.67;3.00
27143;PMS1003;14672;50.250;8.312;2023-08-17T06:34:33;10.25;9.25;4.00
27143;PMS1003;14672;50.250;8.312;2023-08-17T06:36:59;12.33;11.67;6.00
27143;PMS1003;14672;50.250;8.312;2023-08-17T06:39:27;8.50;8.50;3.00
27143;PMS1003;14672;50.250;8.312;2023-08-17T06:41:53;11.00;10.00;5.00
27143;PMS1003;14672;50.250;8.312;2023-08-17T06:44:20;10.50;10.25;5.00
27143;PMS1003;14672;50.250;8.312;2023-08-17T06:46:46;10.00;10.00;5.00
27143;PMS1003;14672;50.250;8.312;2023-08-17T06:49:12;9.33;9.33;4.33
27143;PMS1003;14672;50.250;8.312;2023-08-17T06:51:38;13.67;13.00;5.33
27143;PMS1003;14672;50.250;8.312;2023-08-17T06:54:04;13.50;12.75;6.00
27143;PMS1003;14672;50.250;8.312;2023-08-17T06:56:33;12.25;11.75;4.50
27143;PMS1003;14672;50.250;8.312;2023-08-17T06:58:59;11.00;10.67;3.67
27143;PMS1003;14672;50.250;8.312;2023-08-17T07:01:24;11.67;11.67;4.33
27143;PMS1003;14672;50.250;8.312;2023-08-17T07:03:51;11.00;11.00;4.00
27143;PMS1003;14672;50.250;8.312;2023-08-17T07:06:17;14.00;14.00;6.00
27143;PMS1003;14672;50.250;8.312;2023-08-17T07:08:43;12.33;12.33;6.00
27143;PMS1003;14672;50.250;8.312;2023-08-17T07:11:08;11.00;11.00;5.00
27143;PMS1003;14672;50.250;8.312;2023-08-17T07:13:34;11.67;11.00;4.33
27143;PMS1003;14672;50.250;8.312;2023-08-17T07:16:00;11.00;11.00;6.00
27143;PMS1003;14672;50.250;8.312;2023-08-17T07:18:26;10.00;9.67;5.00
27143;PMS1003;14672;50.250;8.312;2023-08-17T07:20:52;11.33;11.33;5.67
27143;PMS1003;14672;50.250;8.312;2023-08-17T07:23:18;11.00;11.00;5.00
27143;PMS1003;14672;50.250;8.312;2023-08-17T07:25:46;10.00;10.00;5.67
27143;PMS1003;14672;50.250;8.312;2023-08-17T07:28:11;10.50;10.25;5.00
27143;PMS1003;14672;50.250;8.312;2023-08-17T07:30:37;9.00;9.00;3.67
27143;PMS1003;14672;50.250;8.312;2023-08-17T07:33:03;7.33;7.33;3.00
27143;PMS1003;14672;50.250;8.312;2023-08-17T07:35:29;10.00;10.00;5.00
27143;PMS1003;14672;50.250;8.312;2023-08-17T07:40:24;7.00;7.00;2.50
27143;PMS1003;14672;50.250;8.312;2023-08-17T07:42:50;8.00;8.00;3.00
27143;PMS1003;14672;50.250;8.312;2023-08-17T07:45:16;6.67;6.67;2.00
27143;PMS1003;14672;50.250;8.312;2023-08-17T07:47:42;7.00;7.00;3.00
27143;PMS1003;14672;50.250;8.312;2023-08-17T07:50:08;7.33;7.33;3.00
27143;PMS1003;14672;50.250;8.312;2023-08-17T07:52:34;7.75;7.75;4.00
27143;PMS1003;14672;50.250;8.312;2023-08-17T07:54:59;8.00;8.00;2.00
27143;PMS1003;14672;50.250;8.312;2023-08-17T07:57:25;8.00;8.00;5.00
27143;PMS1003;14672;50.250;8.312;2023-08-17T07:59:54;6.25;6.25;2.00
27143;PMS1003;14672;50.250;8.312;2023-08-17T08:02:20;10.33;10.00;3.00
27143;PMS1003;14672;50.250;8.312;2023-08-17T08:04:46;8.33;8.00;3.67
27143;PMS1003;14672;50.250;8.312;2023-08-17T08:07:11;6.33;6.33;3.00
27143;PMS1003;14672;50.250;8.312;2023-08-17T08:09:37;7.00;7.00;3.00
27143;PMS1003;14672;50.250;8.312;2023-08-17T08:12:03;8.00;7.67;3.00
27143;PMS1003;14672;50.250;8.312;2023-08-17T08:14:31;7.00;7.00;2.75
27143;PMS1003;14672;50.250;8.312;2023-08-17T08:16:56;7.00;7.00;3.00
27143;PMS1003;14672;50.250;8.312;2023-08-17T08:19:22;7.00;7.00;2.33
27143;PMS1003;14672;50.250;8.312;2023-08-17T08:21:50;6.00;6.00;2.50
27143;PMS1003;14672;50.250;8.312;2023-08-17T08:24:16;8.50;8.25;3.00
27143;PMS1003;14672;50.250;8.312;2023-08-17T08:26:42;8.00;7.00;3.00
27143;PMS1003;14672;50.250;8.312;2023-08-17T08:29:07;7.00;7.00;2.33
27143;PMS1003;14672;50.250;8.312;2023-08-17T08:31:33;7.33;7.00;2.33
27143;PMS1003;14672;50.250;8.312;2023-08-17T08:33:59;6.33;6.33;2.00
27143;PMS1003;14672;50.250;8.312;2023-08-17T08:36:26;6.00;6.00;2.00
27143;PMS1003;14672;50.250;8.312;2023-08-17T08:38:52;7.33;7.33;2.33
27143;PMS1003;14672;50.250;8.312;2023-08-17T08:41:18;10.00;10.00;3.00
27143;PMS1003;14672;50.250;8.312;2023-08-17T08:43:45;9.00;9.00;4.75
27143;PMS1003;14672;50.250;8.312;2023-08-17T08:46:11;7.00;7.00;2.00
27143;PMS1003;14672;50.250;8.312;2023-08-17T08:48:38;6.50;6.50;2.00
27143;PMS1003;14672;50.250;8.312;2023-08-17T08:51:07;6.00;6.00;2.00
27143;PMS1003;14672;50.250;8.312;2023-08-17T08:53:39;8.25;7.00;2.50
27143;PMS1003;14672;50.250;8.312;2023-08-17T08:56:11;7.00;7.00;3.00
27143;PMS1003;14672;50.250;8.312;2023-08-17T08:58:38;7.75;7.75;2.75
27143;PMS1003;14672;50.250;8.312;2023-08-17T09:01:07;9.00;8.00;3.00
27143;PMS1003;14672;50.250;8.312;2023-08-17T09:03:35;7.00;7.00;3.00
27143;PMS1003;14672;50.250;8.312;2023-08-17T09:06:02;8.75;8.00;3.00
27143;PMS1003;14672;50.250;8.312;2023-08-17T09:08:30;8.00;7.75;3.50
27143;PMS1003;14672;50.250;8.312;2023-08-17T09:10:56;6.75;6.25;2.00
27143;PMS1003;14672;50.250;8.312;2023-08-17T09:13:22;8.25;8.25;3.00
27143;PMS1003;14672;50.250;8.312;2023-08-17T09:15:48;9.00;9.00;3.50
27143;PMS1003;14672;50.250;8.312;2023-08-17T09:18:14;8.00;8.00;3.00
27143;PMS1003;14672;50.250;8.312;2023-08-17T09:20:43;7.00;7.00;3.00
27143;PMS1003;14672;50.250;8.312;2023-08-17T09:25:41;7.50;7.25;3.00
27143;PMS1003;14672;50.250;8.312;2023-08-17T09:28:13;9.00;9.00;3.00
27143;PMS1003;14672;50.250;8.312;2023-08-17T09:33:18;9.00;9.00;4.00
27143;PMS1003;14672;50.250;8.312;2023-08-17T09:35:55;7.67;7.33;3.00
27143;PMS1003;14672;50.250;8.312;2023-08-17T09:38:22;8.00;8.00;4.00
27143;PMS1003;14672;50.250;8.312;2023-08-17T09:40:48;9.00;8.00;3.00
27143;PMS1003;14672;50.250;8.312;2023-08-17T09:43:15;10.00;9.00;3.00
27143;PMS1003;14672;50.250;8.312;2023-08-17T09:45:42;8.00;8.00;3.00
27143;PMS1003;14672;50.250;8.312;2023-08-17T09:48:15;8.00;8.00;3.00
27143;PMS1003;14672;50.250;8.312;2023-08-17T09:50:43;7.75;7.00;3.00
27143;PMS1003;14672;50.250;8.312;2023-08-17T09:53:14;7.00;7.00;3.00
27143;PMS1003;14672;50.250;8.312;2023-08-17T09:55:42;9.00;9.00;3.00
27143;PMS1003;14672;50.250;8.312;2023-08-17T09:58:10;7.00;7.00;2.75
27143;PMS1003;14672;50.250;8.312;2023-08-17T10:00:44;7.00;7.00;3.25
27143;PMS1003;14672;50.250;8.312;2023-08-17T10:03:15;7.00;6.00;2.50
27143;PMS1003;14672;50.250;8.312;2023-08-17T10:05:43;8.00;8.00;2.50
27143;PMS1003;14672;50.250;8.312;2023-08-17T10:08:13;7.00;7.00;3.00
27143;PMS1003;14672;50.250;8.312;2023-08-17T10:10:45;8.75;8.75;3.75
27143;PMS1003;14672;50.250;8.312;2023-08-17T10:16:02;7.50;7.50;2.50
27143;PMS1003;14672;50.250;8.312;2023-08-17T10:24:20;7.00;7.00;3.00
27143;PMS1003;14672;50.250;8.312;2023-08-17T10:26:46;7.00;7.00;3.00
27143;PMS1003;14672;50.250;8.312;2023-08-17T10:29:12;7.00;7.00;3.00
27143;PMS1003;14672;50.250;8.312;2023-08-17T10:31:38;8.00;8.00;3.00
27143;PMS1003;14672;50.250;8.312;2023-08-17T10:34:04;8.00;8.00;4.00
27143;PMS1003;14672;50.250;8.312;2023-08-17T10:36:31;9.25;8.50;3.00
27143;PMS1003;14672;50.250;8.312;2023-08-17T10:39:17;8.00;7.75;3.00
27143;PMS1003;14672;50.250;8.312;2023-08-17T10:41:48;9.00;8.25;3.00
27143;PMS1003;14672;50.250;8.312;2023-08-17T10:44:17;8.00;8.00;3.25
27143;PMS1003;14672;50.250;8.312;2023-08-17T10:52:25;6.75;6.75;3.00
27143;PMS1003;14672;50.250;8.312;2023-08-17T10:55:05;8.75;8.00;3.00
27143;PMS1003;14672;50.250;8.312;2023-08-17T10:57:38;9.50;8.50;3.75
27143;PMS1003;14672;50.250;8.312;2023-08-17T11:02:57;6.75;6.75;3.00
27143;PMS1003;14672;50.250;8.312;2023-08-17T11:05:34;7.50;7.50;3.00
27143;PMS1003;14672;50.250;8.312;2023-08-17T11:08:02;6.00;6.00;3.00
27143;PMS1003;14672;50.250;8.312;2023-08-17T11:10:30;7.50;7.50;3.00
27143;PMS1003;14672;50.250;8.312;2023-08-17T11:12:57;8.00;8.00;3.00
27143;PMS1003;14672;50.250;8.312;2023-08-17T11:18:06;8.75;7.75;2.50
27143;PMS1003;14672;50.250;8.312;2023-08-17T11:20:37;7.00;6.25;2.75
27143;PMS1003;14672;50.250;8.312;2023-08-17T11:23:06;6.00;6.00;3.00
27143;PMS1003;14672;50.250;8.312;2023-08-17T11:25:37;8.25;8.25;4.00
27143;PMS1003;14672;50.250;8.312;2023-08-17T11:28:03;8.25;8.25;3.75
27143;PMS1003;14672;50.250;8.312;2023-08-17T11:30:32;6.50;6.50;3.00
27143;PMS1003;14672;50.250;8.312;2023-08-17T11:33:00;6.75;6.75;3.00
27143;PMS1003;14672;50.250;8.312;2023-08-17T11:35:25;8.00;8.00;3.00
27143;PMS1003;14672;50.250;8.312;2023-08-17T11:37:51;6.00;6.00;2.33
27143;PMS1003;14672;50.250;8.312;2023-08-17T11:40:19;6.75;6.75;3.75
27143;PMS1003;14672;50.250;8.312;2023-08-17T11:42:45;7.00;7.00;3.00
27143;PMS1003;14672;50.250;8.312;2023-08-17T11:45:11;7.00;6.75;3.00
27143;PMS1003;14672;50.250;8.312;2023-08-17T11:47:41;6.00;6.00;3.00
27143;PMS1003;14672;50.250;8.312;2023-08-17T11:50:09;6.75;6.75;3.75
27143;PMS1003;14672;50.250;8.312;2023-08-17T11:52:36;6.50;6.50;3.50
27143;PMS1003;14672;50.250;8.312;2023-08-17T11:55:04;7.25;7.25;3.50
27143;PMS1003;14672;50.250;8.312;2023-08-17T11:57:35;7.25;7.25;3.00
27143;PMS1003;14672;50.250;8.312;2023-08-17T12:00:02;6.25;6.25;3.25
27143;PMS1003;14672;50.250;8.312;2023-08-17T12:02:37;7.00;7.00;4.00
27143;PMS1003;14672;50.250;8.312;2023-08-17T12:05:07;6.25;6.00;2.75
27143;PMS1003;14672;50.250;8.312;2023-08-17T12:07:34;8.00;8.00;4.00
27143;PMS1003;14672;50.250;8.312;2023-08-17T12:10:03;6.25;6.25;3.00
27143;PMS1003;14672;50.250;8.312;2023-08-17T12:12:30;7.25;7.25;4.00
27143;PMS1003;14672;50.250;8.312;2023-08-17T12:14:57;7.33;7.00;4.00
27143;PMS1003;14672;50.250;8.312;2023-08-17T12:17:23;6.25;6.25;3.00
27143;PMS1003;14672;50.250;8.312;2023-08-17T12:19:50;6.50;6.50;3.25
27143;PMS1003;14672;50.250;8.312;2023-08-17T12:22:22;6.75;6.75;3.25
27143;PMS1003;14672;50.250;8.312;2023-08-17T12:24:51;6.00;6.00;2.75
27143;PMS1003;14672;50.250;8.312;2023-08-17T12:27:17;7.25;7.25;4.00
27143;PMS1003;14672;50.250;8.312;2023-08-17T12:29:47;7.00;7.00;3.50
27143;PMS1003;14672;50.250;8.312;2023-08-17T12:32:17;6.00;6.00;3.00
27143;PMS1003;14672;50.250;8.312;2023-08-17T12:34:45;7.00;7.00;4.00
27143;PMS1003;14672;50.250;8.312;2023-08-17T12:37:12;7.50;7.50;4.00
27143;PMS1003;14672;50.250;8.312;2023-08-17T12:39:46;8.00;8.00;3.50
27143;PMS1003;14672;50.250;8.312;2023-08-17T12:42:13;7.25;7.25;3.00
27143;PMS1003;14672;50.250;8.312;2023-08-17T12:44:39;7.00;7.00;3.50
27143;PMS1003;14672;50.250;8.312;2023-08-17T12:47:08;7.00;7.00;3.50
27143;PMS1003;14672;50.250;8.312;2023-08-17T12:49:35;6.75;6.50;3.50
27143;PMS1003;14672;50.250;8.312;2023-08-17T12:52:01;7.25;7.25;4.00
27143;PMS1003;14672;50.250;8.312;2023-08-17T12:54:27;6.00;6.00;3.67
27143;PMS1003;14672;50.250;8.312;2023-08-17T12:56:53;6.67;6.67;3.00
27143;PMS1003;14672;50.250;8.312;2023-08-17T12:59:19;7.00;7.00;3.00
27143;PMS1003;14672;50.250;8.312;2023-08-17T13:01:44;8.00;8.00;4.00
27143;PMS1003;14672;50.250;8.312;2023-08-17T13:04:10;7.00;7.00;3.33
27143;PMS1003;14672;50.250;8.312;2023-08-17T13:06:36;7.00;6.67;3.00
27143;PMS1003;14672;50.250;8.312;2023-08-17T13:09:02;6.25;6.25;3.00
27143;PMS1003;14672;50.250;8.312;2023-08-17T13:11:28;6.67;6.67;3.00
27143;PMS1003;14672;50.250;8.312;2023-08-17T13:13:54;6.67;6.67;3.00
27143;PMS1003;14672;50.250;8.312;2023-08-17T13:16:20;6.00;6.00;3.00
27143;PMS1003;14672;50.250;8.312;2023-08-17T13:18:47;7.75;7.75;4.00
27143;PMS1003;14672;50.250;8.312;2023-08-17T13:21:13;6.00;6.00;3.67
27143;PMS1003;14672;50.250;8.312;2023-08-17T13:23:41;7.00;7.00;3.25
27143;PMS1003;14672;50.250;8.312;2023-08-17T13:26:07;8.00;8.00;4.00
27143;PMS1003;14672;50.250;8.312;2023-08-17T13:28:32;8.00;7.00;3.00
27143;PMS1003;14672;50.250;8.312;2023-08-17T13:30:58;8.00;8.00;4.00
27143;PMS1003;14672;50.250;8.312;2023-08-17T13:33:24;7.33;7.33;3.33
27143;PMS1003;14672;50.250;8.312;2023-08-17T13:35:50;7.00;6.00;3.00
27143;PMS1003;14672;50.250;8.312;2023-08-17T13:38:16;9.25;8.00;4.00
27143;PMS1003;14672;50.250;8.312;2023-08-17T13:40:42;7.00;7.00;3.00
27143;PMS1003;14672;50.250;8.312;2023-08-17T13:43:07;7.67;7.67;4.33
27143;PMS1003;14672;50.250;8.312;2023-08-17T13:45:38;7.25;7.25;4.00
27143;PMS1003;14672;50.250;8.312;2023-08-17T13:48:07;7.75;7.00;3.50
27143;PMS1003;14672;50.250;8.312;2023-08-17T13:50:34;6.00;6.00;3.00
27143;PMS1003;14672;50.250;8.312;2023-08-17T13:53:03;5.75;5.75;3.00
27143;PMS1003;14672;50.250;8.312;2023-08-17T13:55:29;9.00;9.00;3.67
27143;PMS1003;14672;50.250;8.312;2023-08-17T13:57:57;8.00;8.00;4.00
27143;PMS1003;14672;50.250;8.312;2023-08-17T14:00:23;6.25;6.25;3.00
27143;PMS1003;14672;50.250;8.312;2023-08-17T14:02:50;8.25;8.25;4.25
27143;PMS1003;14672;50.250;8.312;2023-08-17T14:05:16;6.00;6.00;3.50
27143;PMS1003;14672;50.250;8.312;2023-08-17T14:07:42;8.00;8.00;3.00
27143;PMS1003;14672;50.250;8.312;2023-08-17T14:10:08;7.00;7.00;3.00
27143;PMS1003;14672;50.250;8.312;2023-08-17T14:12:34;6.00;6.00;3.00
27143;PMS1003;14672;50.250;8.312;2023-08-17T14:15:00;8.00;8.00;4.00
27143;PMS1003;14672;50.250;8.312;2023-08-17T14:17:26;6.67;6.67;4.00
27143;PMS1003;14672;50.250;8.312;2023-08-17T14:19:51;7.00;7.00;4.00
27143;PMS1003;14672;50.250;8.312;2023-08-17T14:22:17;6.00;6.00;2.67
27143;PMS1003;14672;50.250;8.312;2023-08-17T14:24:43;8.33;7.00;3.00
27143;PMS1003;14672;50.250;8.312;2023-08-17T14:27:08;6.67;6.67;4.00
27143;PMS1003;14672;50.250;8.312;2023-08-17T14:29:34;6.67;6.67;3.67
27143;PMS1003;14672;50.250;8.312;2023-08-17T14:32:00;6.00;6.00;3.00
27143;PMS1003;14672;50.250;8.312;2023-08-17T14:34:26;8.00;7.00;4.00
27143;PMS1003;14672;50.250;8.312;2023-08-17T14:36:51;5.67;5.67;2.00
27143;PMS1003;14672;50.250;8.312;2023-08-17T14:39:17;7.00;7.00;4.00
27143;PMS1003;14672;50.250;8.312;2023-08-17T14:41:43;6.67;6.67;4.00
27143;PMS1003;14672;50.250;8.312;2023-08-17T14:44:08;7.67;7.67;3.33
27143;PMS1003;14672;50.250;8.312;2023-08-17T14:46:34;7.00;7.00;3.00